createdAt,value
2022-08-02T00:01:36.164Z,47.61
2022-08-02T00:04:05.479Z,48.69
2022-08-02T00:06:35.075Z,46.93
2022-08-02T00:09:06.039Z,46.93
2022-08-02T00:11:35.321Z,47.66
2022-08-02T00:14:05.090Z,49.20
2022-08-02T00:16:37.595Z,49.20
2022-08-02T00:19:04.965Z,48.19
2022-08-02T00:21:34.163Z,48.39
2022-08-02T00:24:29.017Z,48.03
2022-08-02T00:26:34.090Z,48.03
2022-08-02T00:29:03.298Z,46.79
2022-08-02T00:31:33.192Z,47.56
2022-08-02T00:34:05.240Z,48.27
2022-08-02T00:36:33.245Z,48.27
2022-08-02T00:39:02.341Z,49.33
2022-08-02T00:41:31.554Z,47.83
2022-08-02T00:44:00.624Z,47.83
2022-08-02T00:46:29.709Z,45.70
2022-08-02T00:48:58.961Z,47.67
2022-08-02T00:51:28.137Z,48.25
2022-08-02T00:53:57.313Z,48.25
2022-08-02T00:56:29.490Z,47.09
2022-08-02T00:58:58.690Z,47.14
2022-08-02T01:01:56.627Z,48.87
2022-08-02T01:04:13.299Z,48.87
2022-08-02T01:06:43.863Z,47.71
2022-08-02T01:09:13.118Z,48.32
2022-08-02T01:11:42.703Z,48.32
2022-08-02T01:14:14.840Z,47.36
2022-08-02T01:16:55.655Z,47.67
2022-08-02T01:19:52.290Z,47.67
2022-08-02T01:23:00.710Z,47.74
2022-08-02T01:25:29.889Z,46.27
2022-08-02T01:28:34.957Z,48.55
2022-08-02T01:31:15.919Z,46.75
2022-08-02T01:33:59.742Z,48.51
2022-08-02T01:36:31.811Z,49.31
2022-08-02T01:39:02.257Z,49.17
2022-08-02T01:41:33.775Z,48.15
2022-08-02T01:44:05.033Z,50.15
2022-08-02T01:46:35.763Z,50.95
2022-08-02T01:49:09.446Z,50.95
2022-08-02T01:51:59.150Z,50.87
2022-08-02T01:54:30.798Z,50.35
2022-08-02T01:57:02.767Z,50.52
2022-08-02T01:59:33.813Z,50.52
2022-08-02T02:02:04.201Z,48.81
2022-08-02T02:04:34.454Z,48.32
2022-08-02T02:07:04.754Z,48.58
2022-08-02T02:09:36.742Z,49.09
2022-08-02T02:12:13.458Z,49.09
2022-08-02T02:14:42.133Z,48.76
2022-08-02T02:17:54.839Z,47.38
2022-08-02T02:19:47.765Z,48.17
2022-08-02T02:22:17.173Z,48.17
2022-08-02T02:24:46.902Z,47.47
2022-08-02T02:27:18.635Z,46.88
2022-08-02T02:29:50.814Z,48.99
2022-08-02T02:32:22.081Z,48.99
2022-08-02T02:34:52.544Z,47.72
2022-08-02T02:37:24.538Z,48.44
2022-08-02T02:39:55.507Z,48.57
2022-08-02T02:42:27.464Z,48.57
2022-08-02T02:44:58.237Z,49.00
2022-08-02T02:47:41.134Z,47.79
2022-08-02T02:50:02.680Z,48.07
2022-08-02T02:52:32.632Z,48.28
2022-08-02T02:55:03.166Z,45.32
2022-08-02T02:57:34.109Z,47.33
2022-08-02T03:00:04.109Z,46.89
2022-08-02T03:02:33.433Z,47.87
2022-08-02T03:05:04.327Z,45.26
2022-08-02T03:07:34.932Z,45.26
2022-08-02T03:10:07.149Z,48.66
2022-08-02T03:12:37.606Z,47.07
2022-08-02T03:15:09.478Z,47.07
2022-08-02T03:17:43.512Z,48.04
2022-08-02T03:20:17.930Z,47.64
2022-08-02T03:22:48.419Z,48.55
2022-08-02T03:25:18.947Z,48.55
2022-08-02T03:27:48.513Z,48.07
2022-08-02T03:30:17.629Z,46.81
2022-08-02T03:32:49.715Z,46.81
2022-08-02T03:35:24.076Z,47.52
2022-08-02T03:37:54.845Z,46.82
2022-08-02T03:40:25.106Z,47.23
2022-08-02T03:42:54.961Z,47.21
2022-08-02T03:45:25.414Z,47.21
2022-08-02T03:47:54.799Z,47.19
2022-08-02T03:50:26.192Z,47.19
2022-08-02T03:52:56.017Z,48.18
2022-08-02T03:55:25.406Z,47.95
2022-08-02T03:57:54.706Z,47.95
2022-08-02T04:00:24.993Z,47.74
2022-08-02T04:02:54.313Z,47.67
2022-08-02T04:05:23.835Z,47.67
2022-08-02T04:08:02.729Z,48.04
2022-08-02T04:10:23.853Z,49.37
2022-08-02T04:12:53.415Z,50.37
2022-08-02T04:15:24.082Z,51.10
2022-08-02T04:17:59.138Z,51.10
2022-08-02T04:20:36.302Z,51.63
2022-08-02T04:23:08.262Z,51.63
2022-08-02T04:25:40.810Z,53.48
2022-08-02T04:28:17.107Z,53.75
2022-08-02T04:30:43.803Z,51.84
2022-08-02T04:33:13.852Z,52.48
2022-08-02T04:35:43.317Z,51.95
2022-08-02T04:38:15.109Z,51.95
2022-08-02T04:40:52.546Z,52.73
2022-08-02T04:43:22.279Z,53.31
2022-08-02T04:45:56.338Z,54.18
2022-08-02T04:48:25.650Z,54.56
2022-08-02T04:50:54.864Z,54.90
2022-08-02T04:53:24.073Z,54.90
2022-08-02T04:55:53.140Z,56.57
2022-08-02T04:58:40.124Z,56.57
2022-08-02T05:00:53.088Z,53.91
2022-08-02T05:03:22.401Z,54.72
2022-08-02T05:05:51.465Z,55.82
2022-08-02T05:08:20.554Z,55.82
2022-08-02T05:10:49.674Z,56.12
2022-08-02T05:13:18.678Z,56.12
2022-08-02T05:15:51.904Z,56.71
2022-08-02T05:18:21.027Z,54.70
2022-08-02T05:20:51.459Z,53.67
2022-08-02T05:23:20.970Z,54.74
2022-08-02T05:25:50.167Z,57.49
2022-08-02T05:28:19.260Z,56.55
2022-08-02T05:30:48.316Z,56.55
2022-08-02T05:33:19.195Z,56.25
2022-08-02T05:35:48.338Z,54.17
2022-08-02T05:38:17.506Z,56.27
2022-08-02T05:40:54.884Z,59.18
2022-08-02T05:43:19.158Z,59.18
2022-08-02T05:45:49.884Z,54.41
2022-08-02T05:48:18.990Z,54.41
2022-08-02T05:50:51.157Z,58.03
2022-08-02T05:53:32.003Z,57.70
2022-08-02T05:56:28.420Z,55.90
2022-08-02T05:59:06.466Z,56.64
2022-08-02T06:01:38.444Z,56.64
2022-08-02T06:04:10.093Z,56.03
2022-08-02T06:06:41.346Z,56.03
2022-08-02T06:09:23.015Z,57.14
2022-08-02T06:12:11.563Z,57.14
2022-08-02T06:14:24.657Z,55.58
2022-08-02T06:16:56.972Z,55.58
2022-08-02T06:19:27.228Z,56.90
2022-08-02T06:22:32.097Z,56.83
2022-08-02T06:24:28.178Z,56.93
2022-08-02T06:26:58.148Z,56.93
2022-08-02T06:29:28.344Z,58.20
2022-08-02T06:31:58.096Z,59.18
2022-08-02T06:34:27.454Z,59.18
2022-08-02T06:37:20.785Z,59.52
2022-08-02T06:39:55.507Z,59.52
2022-08-02T06:42:27.675Z,58.48
2022-08-02T06:44:58.068Z,57.57
2022-08-02T06:47:28.100Z,57.57
2022-08-02T06:49:58.779Z,56.64
2022-08-02T06:52:31.491Z,57.39
2022-08-02T06:55:02.622Z,58.49
2022-08-02T06:57:32.819Z,58.49
2022-08-02T07:00:04.687Z,58.35
2022-08-02T07:02:34.146Z,55.95
2022-08-02T07:05:03.634Z,61.52
2022-08-02T07:07:32.760Z,61.52
2022-08-02T07:10:02.462Z,61.86
2022-08-02T07:12:33.571Z,62.43
2022-08-02T07:15:04.950Z,60.00
2022-08-02T07:17:34.653Z,60.00
2022-08-02T07:20:04.875Z,58.63
2022-08-02T07:22:34.109Z,63.30
2022-08-02T07:25:03.795Z,57.45
2022-08-02T07:27:33.192Z,57.91
2022-08-02T07:30:02.839Z,57.91
2022-08-02T07:32:33.556Z,56.33
2022-08-02T07:35:06.961Z,58.83
2022-08-02T07:37:55.403Z,57.36
2022-08-02T07:40:13.463Z,57.36
2022-08-02T07:42:39.989Z,57.03
2022-08-02T07:45:09.703Z,57.03
2022-08-02T07:47:41.213Z,59.52
2022-08-02T07:50:12.316Z,60.56
2022-08-02T07:52:42.682Z,58.47
2022-08-02T07:55:13.705Z,58.47
2022-08-02T07:57:46.504Z,60.89
2022-08-02T08:00:16.310Z,60.89
2022-08-02T08:02:46.037Z,58.59
2022-08-02T08:05:15.318Z,55.50
2022-08-02T08:07:44.522Z,58.11
2022-08-02T08:10:13.752Z,60.19
2022-08-02T08:12:42.815Z,60.19
2022-08-02T08:15:12.699Z,58.29
2022-08-02T08:17:41.828Z,57.76
2022-08-02T08:20:15.612Z,57.76
2022-08-02T08:22:42.191Z,59.57
2022-08-02T08:25:11.574Z,59.57
2022-08-02T08:27:42.095Z,59.47
2022-08-02T08:30:12.442Z,58.27
2022-08-02T08:32:41.725Z,58.27
2022-08-02T08:35:11.066Z,58.46
2022-08-02T08:37:40.955Z,57.74
2022-08-02T08:40:12.598Z,57.74
2022-08-02T08:42:42.065Z,59.10
2022-08-02T08:45:11.914Z,56.87
2022-08-02T08:47:43.788Z,58.61
2022-08-02T08:50:21.304Z,58.61
2022-08-02T08:53:04.245Z,60.11
2022-08-02T08:55:35.176Z,53.30
2022-08-02T08:58:05.537Z,53.30
2022-08-02T09:00:37.150Z,53.77
2022-08-02T09:03:08.764Z,53.32
2022-08-02T09:05:39.720Z,55.41
2022-08-02T09:08:13.477Z,55.41
2022-08-02T09:10:45.257Z,53.94
2022-08-02T09:13:31.190Z,54.64
2022-08-02T09:16:11.739Z,54.64
2022-08-02T09:18:44.029Z,52.10
2022-08-02T09:21:15.592Z,52.11
2022-08-02T09:23:48.322Z,52.83
2022-08-02T09:26:19.987Z,52.58
2022-08-02T09:28:51.945Z,52.58
2022-08-02T09:31:23.901Z,53.36
2022-08-02T09:34:02.267Z,54.85
2022-08-02T09:36:43.082Z,55.27
2022-08-02T09:39:15.152Z,56.86
2022-08-02T09:41:46.438Z,57.37
2022-08-02T09:44:17.897Z,59.79
2022-08-02T09:46:47.947Z,59.79
2022-08-02T09:49:19.736Z,58.58
2022-08-02T09:51:51.792Z,54.10
2022-08-02T09:54:25.921Z,55.63
2022-08-02T09:57:00.590Z,55.77
2022-08-02T09:59:31.240Z,53.70
2022-08-02T10:02:04.072Z,53.70
2022-08-02T10:04:52.966Z,53.84
2022-08-02T10:07:05.846Z,55.28
2022-08-02T10:09:38.026Z,53.99
2022-08-02T10:12:07.435Z,53.99
2022-08-02T10:14:36.703Z,52.62
2022-08-02T10:17:06.507Z,52.36
2022-08-02T10:19:59.780Z,51.01
2022-08-02T10:22:09.082Z,51.93
2022-08-02T10:24:47.518Z,51.93
2022-08-02T10:27:13.883Z,51.89
2022-08-02T10:29:55.043Z,51.89
2022-08-02T10:32:24.839Z,51.25
2022-08-02T10:35:02.754Z,51.25
2022-08-02T10:37:33.778Z,51.69
2022-08-02T10:40:03.338Z,51.69
2022-08-02T10:42:49.892Z,51.29
2022-08-02T10:45:21.620Z,50.41
2022-08-02T10:48:12.002Z,51.93
2022-08-02T10:50:53.321Z,52.20
2022-08-02T10:53:27.390Z,50.70
2022-08-02T10:55:59.173Z,52.54
2022-08-02T10:58:31.876Z,52.54
2022-08-02T11:01:06.340Z,52.78
2022-08-02T11:03:40.312Z,51.66
2022-08-02T11:06:24.718Z,52.14
2022-08-02T11:08:45.661Z,52.14
2022-08-02T11:11:19.988Z,53.72
2022-08-02T11:14:10.910Z,51.68
2022-08-02T11:17:02.854Z,52.85
2022-08-02T11:19:32.345Z,52.85
2022-08-02T11:22:10.440Z,52.48
2022-08-02T11:24:41.662Z,52.78
2022-08-02T11:27:13.028Z,51.53
2022-08-02T11:29:45.201Z,52.91
2022-08-02T11:32:20.025Z,54.37
2022-08-02T11:34:52.018Z,54.37
2022-08-02T11:37:36.755Z,55.85
2022-08-02T11:40:19.810Z,54.43
2022-08-02T11:42:44.618Z,54.43
2022-08-02T11:45:20.803Z,52.86
2022-08-02T11:47:54.902Z,54.08
2022-08-02T11:50:30.225Z,53.42
2022-08-02T11:52:56.470Z,52.71
2022-08-02T11:55:30.423Z,52.71
2022-08-02T11:58:06.345Z,53.35
2022-08-02T12:00:36.575Z,52.59
2022-08-02T12:03:07.174Z,53.27
2022-08-02T12:06:04.561Z,52.15
2022-08-02T12:08:10.776Z,52.15
2022-08-02T12:10:43.648Z,53.23
2022-08-02T12:13:12.828Z,53.17
2022-08-02T12:15:45.535Z,53.17
2022-08-02T12:18:35.742Z,51.23
2022-08-02T12:21:05.770Z,52.00
2022-08-02T12:23:36.296Z,52.34
2022-08-02T12:26:09.480Z,52.34
2022-08-02T12:28:41.936Z,52.48
2022-08-02T12:31:14.490Z,53.17
2022-08-02T12:33:49.230Z,51.84
2022-08-02T12:36:23.648Z,53.54
2022-08-02T12:38:54.330Z,53.87
2022-08-02T12:41:24.010Z,51.14
2022-08-02T12:43:56.145Z,51.14
2022-08-02T12:46:26.847Z,51.34
2022-08-02T12:49:16.932Z,51.62
2022-08-02T12:51:56.548Z,52.78
2022-08-02T12:54:31.090Z,52.01
2022-08-02T12:56:53.315Z,52.01
2022-08-02T12:59:39.991Z,50.99
2022-08-02T13:02:12.802Z,50.99
2022-08-02T13:04:49.965Z,50.32
2022-08-02T13:07:13.953Z,51.93
2022-08-02T13:09:45.891Z,51.93
2022-08-02T13:12:15.987Z,50.89
2022-08-02T13:14:45.462Z,51.88
2022-08-02T13:17:14.811Z,51.43
2022-08-02T13:19:44.005Z,51.43
2022-08-02T13:22:13.557Z,52.63
2022-08-02T13:24:55.850Z,52.63
2022-08-02T13:27:14.875Z,54.01
2022-08-02T13:29:44.296Z,52.69
2022-08-02T13:32:13.789Z,52.46
2022-08-02T13:34:43.396Z,49.84
2022-08-02T13:37:12.809Z,51.26
2022-08-02T13:39:42.591Z,53.12
2022-08-02T13:42:17.165Z,53.17
2022-08-02T13:44:43.670Z,53.17
2022-08-02T13:47:13.080Z,54.27
2022-08-02T13:49:50.969Z,54.27
2022-08-02T13:52:13.919Z,52.08
2022-08-02T13:54:43.431Z,53.45
2022-08-02T13:57:12.524Z,53.00
2022-08-02T13:59:56.362Z,53.00
2022-08-02T14:02:12.982Z,51.39
2022-08-02T14:04:43.400Z,53.27
2022-08-02T14:07:13.105Z,53.27
2022-08-02T14:09:43.797Z,52.61
2022-08-02T14:12:13.543Z,52.61
2022-08-02T14:14:42.847Z,52.79
2022-08-02T14:17:11.970Z,52.79
2022-08-02T14:19:41.179Z,51.94
2022-08-02T14:22:10.774Z,52.01
2022-08-02T14:24:41.991Z,52.29
2022-08-02T14:27:11.397Z,52.20
2022-08-02T14:29:40.505Z,52.82
2022-08-02T14:32:10.350Z,52.82
2022-08-02T14:34:39.936Z,52.66
2022-08-02T14:37:09.163Z,50.46
2022-08-02T14:39:42.879Z,52.06
2022-08-02T14:42:09.364Z,52.06
2022-08-02T14:44:39.057Z,52.88
2022-08-02T14:47:08.153Z,51.94
2022-08-02T14:49:41.724Z,51.94
2022-08-02T14:52:08.207Z,51.44
2022-08-02T14:54:37.396Z,50.99
2022-08-02T14:57:06.662Z,54.12
2022-08-02T14:59:35.889Z,54.12
2022-08-02T15:02:06.616Z,53.73
2022-08-02T15:04:42.447Z,52.69
2022-08-02T15:07:08.321Z,53.96
2022-08-02T15:09:39.776Z,53.96
2022-08-02T15:12:09.508Z,52.29
2022-08-02T15:14:39.705Z,52.32
2022-08-02T15:17:10.224Z,52.52
2022-08-02T15:19:58.868Z,52.52
2022-08-02T15:22:13.204Z,53.43
2022-08-02T15:24:43.224Z,53.51
2022-08-02T15:27:14.567Z,52.75
2022-08-02T15:29:45.114Z,52.75
2022-08-02T15:32:15.113Z,52.84
2022-08-02T15:34:44.524Z,53.23
2022-08-02T15:37:13.722Z,54.08
2022-08-02T15:39:42.936Z,53.27
2022-08-02T15:42:12.301Z,53.27
2022-08-02T15:44:41.736Z,52.79
2022-08-02T15:47:10.820Z,53.72
2022-08-02T15:49:41.796Z,53.35
2022-08-02T15:52:12.056Z,52.57
2022-08-02T15:54:41.387Z,53.23
2022-08-02T15:57:10.609Z,53.63
2022-08-02T15:59:39.887Z,53.45
2022-08-02T16:02:09.150Z,52.99
2022-08-02T16:04:38.517Z,52.70
2022-08-02T16:07:07.695Z,53.88
2022-08-02T16:09:37.181Z,52.42
2022-08-02T16:12:06.962Z,53.61
2022-08-02T16:14:36.291Z,54.05
2022-08-02T16:17:05.527Z,54.05
2022-08-02T16:19:48.363Z,53.42
2022-08-02T16:22:05.948Z,52.44
2022-08-02T16:24:36.873Z,53.16
2022-08-02T16:27:06.105Z,53.12
2022-08-02T16:29:36.795Z,53.12
2022-08-02T16:32:07.245Z,52.49
2022-08-02T16:34:57.041Z,53.47
2022-08-02T16:37:08.500Z,50.91
2022-08-02T16:39:37.833Z,52.47
2022-08-02T16:42:07.135Z,52.41
2022-08-02T16:44:37.030Z,52.41
2022-08-02T16:47:07.075Z,53.29
2022-08-02T16:50:04.929Z,52.82
2022-08-02T16:54:38.824Z,53.21
2022-08-02T16:57:07.920Z,53.23
2022-08-02T16:59:42.859Z,52.85
2022-08-02T17:02:15.113Z,52.85
2022-08-02T17:04:39.312Z,51.93
2022-08-02T17:07:16.275Z,51.93
2022-08-02T17:10:04.174Z,52.25
2022-08-02T17:12:16.179Z,52.25
2022-08-02T17:14:54.806Z,51.32
2022-08-02T17:17:15.872Z,52.19
2022-08-02T17:19:46.624Z,52.19
2022-08-02T17:22:17.690Z,52.22
2022-08-02T17:24:48.436Z,52.28
2022-08-02T17:27:18.108Z,52.21
2022-08-02T17:29:49.196Z,51.55
2022-08-02T17:32:18.900Z,52.15
2022-08-02T17:34:56.425Z,51.64
2022-08-02T17:37:19.178Z,51.98
2022-08-02T17:39:51.986Z,52.33
2022-08-02T17:44:52.088Z,52.27
2022-08-02T17:47:21.787Z,52.18
2022-08-02T17:49:52.633Z,52.18
2022-08-02T17:52:50.230Z,51.90
2022-08-02T17:54:54.402Z,52.10
2022-08-02T17:57:23.499Z,52.23
2022-08-02T18:00:04.350Z,52.07
2022-08-02T18:02:32.367Z,52.01
2022-08-02T18:05:01.479Z,52.01
2022-08-02T18:07:49.585Z,52.20
2022-08-02T18:10:03.592Z,51.81
2022-08-02T18:12:34.681Z,51.29
2022-08-02T18:15:06.831Z,50.87
2022-08-02T18:17:34.596Z,50.83
2022-08-02T18:20:10.524Z,51.71
2022-08-02T18:22:35.861Z,51.71
2022-08-02T18:27:38.982Z,51.11
2022-08-02T18:30:09.176Z,50.60
2022-08-02T18:34:00.517Z,50.87
2022-08-02T18:35:10.755Z,50.87
2022-08-02T18:37:43.683Z,50.06
2022-08-02T18:40:11.436Z,50.06
2022-08-02T18:42:41.521Z,49.50
2022-08-02T18:45:19.885Z,50.19
2022-08-02T18:47:42.302Z,50.19
2022-08-02T18:50:13.239Z,50.76
2022-08-02T18:52:47.606Z,51.06
2022-08-02T18:55:17.144Z,50.02
2022-08-02T18:58:02.052Z,50.14
2022-08-02T19:00:20.571Z,50.72
2022-08-02T19:02:48.929Z,50.43
2022-08-02T19:05:21.054Z,50.43
2022-08-02T19:07:49.879Z,50.88
2022-08-02T19:10:19.723Z,50.35
2022-08-02T19:12:51.522Z,50.97
2022-08-02T19:15:19.567Z,51.04
2022-08-02T19:17:55.472Z,50.62
2022-08-02T19:20:19.918Z,50.62
2022-08-02T19:22:53.564Z,51.36
2022-08-02T19:25:21.077Z,51.36
2022-08-02T19:27:54.089Z,50.33
2022-08-02T19:30:25.838Z,49.93
2022-08-02T19:32:58.923Z,49.22
2022-08-02T19:35:30.648Z,49.29
2022-08-02T19:37:59.028Z,49.29
2022-08-02T19:40:29.031Z,48.38
2022-08-02T19:44:23.243Z,48.66
2022-08-02T19:45:49.113Z,47.95
2022-08-02T19:47:59.991Z,48.07
2022-08-02T19:50:29.291Z,48.36
2022-08-02T19:52:58.408Z,48.36
2022-08-02T19:56:01.281Z,49.20
2022-08-02T19:57:58.309Z,48.03
2022-08-02T20:00:27.715Z,48.87
2022-08-02T20:02:56.849Z,48.87
2022-08-02T20:05:27.553Z,49.22
2022-08-02T20:07:57.143Z,48.64
2022-08-02T20:10:27.503Z,48.35
2022-08-02T20:12:56.884Z,47.50
2022-08-02T20:15:51.796Z,46.32
2022-08-02T20:17:57.659Z,47.85
2022-08-02T20:20:30.499Z,47.85
2022-08-02T20:25:47.627Z,47.59
2022-08-02T20:28:16.728Z,47.54
2022-08-02T20:30:46.634Z,47.78
2022-08-02T20:33:21.791Z,47.31
2022-08-02T20:35:47.915Z,47.31
2022-08-02T20:38:17.010Z,46.92
2022-08-02T20:40:47.279Z,47.70
2022-08-02T20:43:16.762Z,47.70
2022-08-02T20:45:47.071Z,48.16
2022-08-02T20:48:16.303Z,48.36
2022-08-02T20:50:49.529Z,48.36
2022-08-02T20:53:23.321Z,47.71
2022-08-02T20:55:53.326Z,48.03
2022-08-02T20:58:27.405Z,48.03
2022-08-02T21:00:54.243Z,48.21
2022-08-02T21:03:23.315Z,48.12
2022-08-02T21:05:55.945Z,47.43
2022-08-02T21:08:24.109Z,47.43
2022-08-02T21:10:55.394Z,46.92
2022-08-02T21:13:26.117Z,46.92
2022-08-02T21:16:04.413Z,47.83
2022-08-02T21:18:34.207Z,48.09
2022-08-02T21:20:57.990Z,47.08
2022-08-02T21:23:28.518Z,47.08
2022-08-02T21:25:59.309Z,47.67
2022-08-02T21:28:43.296Z,47.67
2022-08-02T21:30:59.191Z,47.82
2022-08-02T21:33:28.767Z,47.57
2022-08-02T21:35:59.610Z,47.57
2022-08-02T21:38:35.769Z,47.92
2022-08-02T21:40:59.988Z,47.97
2022-08-02T21:43:38.417Z,49.04
2022-08-02T21:45:59.985Z,48.42
2022-08-02T21:48:29.285Z,48.42
2022-08-02T21:50:58.501Z,48.35
2022-08-02T21:53:42.789Z,48.35
2022-08-02T21:56:01.067Z,48.08
2022-08-02T21:58:29.278Z,48.83
2022-08-02T22:00:58.555Z,49.30
2022-08-02T22:03:29.640Z,48.80
2022-08-02T22:06:01.843Z,48.25
2022-08-02T22:08:32.561Z,47.23
2022-08-02T22:11:04.443Z,47.23
2022-08-02T22:13:38.641Z,46.51
2022-08-02T22:16:08.294Z,47.77
2022-08-02T22:18:38.133Z,47.77
2022-08-02T22:21:14.291Z,48.09
2022-08-02T22:23:50.372Z,48.09
2022-08-02T22:26:12.498Z,48.59
2022-08-02T22:28:51.090Z,48.59
2022-08-02T22:31:12.287Z,49.23
2022-08-02T22:34:01.826Z,48.35
2022-08-02T22:36:33.317Z,48.69
2022-08-02T22:39:03.164Z,48.72
2022-08-02T22:42:01.702Z,48.72
2022-08-02T22:44:03.303Z,49.36
2022-08-02T22:46:33.902Z,49.36
2022-08-02T22:49:03.333Z,48.98
2022-08-02T22:51:34.159Z,49.05
2022-08-02T22:54:03.494Z,48.80
2022-08-02T22:56:33.768Z,49.02
2022-08-02T22:58:51.180Z,52.33
2022-08-02T22:58:59.505Z,51.11
2022-08-02T22:59:06.461Z,47.24
2022-08-02T22:59:10.148Z,52.78
2022-08-02T23:01:34.907Z,49.05
2022-08-02T23:04:04.145Z,48.14
2022-08-02T23:06:33.316Z,47.21
2022-08-02T23:09:02.515Z,47.83
2022-08-02T23:11:31.737Z,47.85
2022-08-02T23:14:00.910Z,47.13
2022-08-02T23:16:48.067Z,47.13
2022-08-02T23:19:35.066Z,47.91
2022-08-02T23:22:04.343Z,49.22
2022-08-02T23:24:33.994Z,48.78
2022-08-02T23:27:03.276Z,48.93
2022-08-02T23:29:32.361Z,48.35
2022-08-02T23:32:01.851Z,48.34
2022-08-02T23:34:31.045Z,47.98
2022-08-02T23:37:00.242Z,48.80
2022-08-02T23:39:29.395Z,48.30
2022-08-02T23:41:58.951Z,48.53
2022-08-02T23:44:28.760Z,48.53
2022-08-02T23:47:00.621Z,48.32
2022-08-02T23:49:30.273Z,48.37
2022-08-02T23:52:01.870Z,47.63
2022-08-02T23:54:30.474Z,48.66
2022-08-02T23:56:59.694Z,48.52
2022-08-02T23:59:28.866Z,48.86
